createdAt,value
2023-05-30T00:00:19.636Z,11.77
2023-05-30T00:02:49.578Z,11.74
2023-05-30T00:05:19.354Z,11.76
2023-05-30T00:07:49.053Z,11.80
2023-05-30T00:10:18.771Z,11.77
2023-05-30T00:12:51.252Z,11.78
2023-05-30T00:15:21.080Z,11.76
2023-05-30T00:17:53.902Z,11.73
2023-05-30T00:20:24.062Z,11.73
2023-05-30T00:22:53.936Z,11.71
2023-05-30T00:25:23.658Z,11.70
2023-05-30T00:27:55.984Z,11.68
2023-05-30T00:30:25.876Z,11.65
2023-05-30T00:32:55.864Z,11.62
2023-05-30T00:35:28.934Z,11.60
2023-05-30T00:37:58.800Z,11.60
2023-05-30T00:40:29.231Z,11.60
2023-05-30T00:43:02.552Z,11.57
2023-05-30T00:45:32.275Z,11.49
2023-05-30T00:48:02.579Z,11.51
2023-05-30T00:50:36.138Z,11.49
2023-05-30T00:53:05.893Z,11.45
2023-05-30T00:55:36.495Z,11.44
2023-05-30T00:58:09.290Z,11.43
2023-05-30T01:00:41.448Z,11.40
2023-05-30T01:03:11.336Z,11.38
2023-05-30T01:05:41.149Z,11.33
2023-05-30T01:08:12.073Z,11.35
2023-05-30T01:10:41.849Z,11.32
2023-05-30T01:13:22.192Z,11.32
2023-05-30T01:15:56.670Z,11.25
2023-05-30T01:18:31.574Z,11.20
2023-05-30T01:21:04.773Z,11.14
2023-05-30T01:24:01.709Z,11.12
2023-05-30T01:26:41.426Z,11.09
2023-05-30T01:29:19.019Z,11.10
2023-05-30T01:31:49.535Z,11.08
2023-05-30T01:34:19.474Z,11.12
2023-05-30T01:36:49.196Z,11.11
2023-05-30T01:39:19.359Z,11.11
2023-05-30T01:41:55.000Z,11.05
2023-05-30T01:44:33.207Z,11.09
2023-05-30T01:47:07.139Z,11.06
2023-05-30T01:49:42.060Z,11.06
2023-05-30T01:52:15.772Z,11.08
2023-05-30T01:54:49.291Z,11.06
2023-05-30T01:57:20.328Z,11.03
2023-05-30T01:59:53.061Z,11.02
2023-05-30T02:02:22.766Z,11.04
2023-05-30T02:04:52.663Z,10.95
2023-05-30T02:07:23.592Z,10.90
2023-05-30T02:09:53.343Z,10.84
2023-05-30T02:12:23.119Z,10.84
2023-05-30T02:14:55.999Z,10.85
2023-05-30T02:17:26.695Z,10.81
2023-05-30T02:19:58.612Z,10.84
2023-05-30T02:22:28.405Z,10.73
2023-05-30T02:24:58.580Z,10.70
2023-05-30T02:27:28.578Z,10.72
2023-05-30T02:30:01.029Z,10.69
2023-05-30T02:32:31.008Z,10.66
2023-05-30T02:35:01.494Z,10.65
2023-05-30T02:37:31.712Z,10.59
2023-05-30T02:40:01.934Z,10.55
2023-05-30T02:42:31.843Z,10.55
2023-05-30T02:45:04.454Z,10.56
2023-05-30T02:47:34.422Z,10.53
2023-05-30T02:50:04.212Z,10.52
2023-05-30T02:52:34.264Z,10.53
2023-05-30T02:55:06.132Z,10.53
2023-05-30T02:57:38.402Z,10.51
2023-05-30T03:00:14.741Z,10.49
2023-05-30T03:02:51.179Z,10.45
2023-05-30T03:05:21.087Z,10.50
2023-05-30T03:07:53.206Z,10.46
2023-05-30T03:10:23.140Z,10.44
2023-05-30T03:12:54.425Z,10.38
2023-05-30T03:15:28.040Z,10.35
2023-05-30T03:17:59.088Z,10.33
2023-05-30T03:20:32.751Z,10.33
2023-05-30T03:23:03.685Z,10.32
2023-05-30T03:25:34.144Z,10.33
2023-05-30T03:28:07.555Z,10.28
2023-05-30T03:30:46.601Z,10.25
2023-05-30T03:33:16.408Z,10.28
2023-05-30T03:35:47.064Z,10.29
2023-05-30T03:38:16.871Z,10.28
2023-05-30T03:40:46.719Z,10.17
2023-05-30T03:43:16.409Z,10.16
2023-05-30T03:45:49.143Z,10.20
2023-05-30T03:48:18.908Z,10.22
2023-05-30T03:50:48.674Z,10.20
2023-05-30T03:53:18.395Z,10.23
2023-05-30T03:55:48.647Z,10.28
2023-05-30T03:58:18.405Z,10.32
2023-05-30T04:00:50.664Z,10.36
2023-05-30T04:03:22.068Z,10.47
2023-05-30T04:05:52.335Z,10.49
2023-05-30T04:08:23.611Z,10.53
2023-05-30T04:10:53.324Z,10.57
2023-05-30T04:13:24.694Z,10.63
2023-05-30T04:15:57.113Z,10.65
2023-05-30T04:18:26.957Z,10.60
2023-05-30T04:20:57.083Z,10.53
2023-05-30T04:23:27.439Z,10.56
2023-05-30T04:25:59.223Z,10.64
2023-05-30T04:28:31.128Z,10.69
2023-05-30T04:31:19.034Z,10.69
2023-05-30T04:33:51.796Z,10.73
2023-05-30T04:36:22.108Z,10.76
2023-05-30T04:38:53.934Z,10.78
2023-05-30T04:41:26.705Z,10.81
2023-05-30T04:43:59.297Z,10.85
2023-05-30T04:46:32.013Z,10.90
2023-05-30T04:49:03.260Z,10.91
2023-05-30T04:51:35.398Z,10.96
2023-05-30T04:54:05.163Z,11.02
2023-05-30T04:56:34.907Z,11.06
2023-05-30T04:59:04.740Z,11.04
2023-05-30T05:01:38.101Z,11.09
2023-05-30T05:04:07.904Z,11.06
2023-05-30T05:06:37.742Z,11.08
2023-05-30T05:09:07.463Z,11.10
2023-05-30T05:11:37.173Z,11.16
2023-05-30T05:14:06.985Z,11.17
2023-05-30T05:16:39.438Z,11.24
2023-05-30T05:19:09.154Z,11.26
2023-05-30T05:21:39.799Z,11.25
2023-05-30T05:24:10.914Z,11.27
2023-05-30T05:26:40.954Z,11.26
2023-05-30T05:29:11.101Z,11.34
2023-05-30T05:31:43.791Z,11.32
2023-05-30T05:34:13.764Z,11.35
2023-05-30T05:36:45.711Z,11.33
2023-05-30T05:39:15.746Z,11.27
2023-05-30T05:41:45.704Z,11.35
2023-05-30T05:44:15.616Z,11.40
2023-05-30T05:46:48.218Z,11.37
2023-05-30T05:49:18.499Z,11.34
2023-05-30T05:51:48.762Z,11.42
2023-05-30T05:54:18.742Z,11.44
2023-05-30T05:56:49.956Z,11.48
2023-05-30T05:59:19.891Z,11.42
2023-05-30T06:01:52.668Z,11.43
2023-05-30T06:04:22.783Z,11.49
2023-05-30T06:06:52.756Z,11.55
2023-05-30T06:09:22.767Z,11.56
2023-05-30T06:11:52.872Z,11.62
2023-05-30T06:14:22.699Z,11.67
2023-05-30T06:16:55.258Z,11.72
2023-05-30T06:19:25.489Z,11.73
2023-05-30T06:21:55.480Z,11.79
2023-05-30T06:24:25.542Z,11.79
2023-05-30T06:26:55.659Z,11.82
2023-05-30T06:29:25.681Z,11.80
2023-05-30T06:32:13.905Z,11.82
2023-05-30T06:34:45.861Z,11.82
2023-05-30T06:37:16.006Z,11.75
2023-05-30T06:39:46.093Z,11.79
2023-05-30T06:42:16.165Z,11.63
2023-05-30T06:44:49.390Z,11.76
2023-05-30T06:47:21.892Z,11.75
2023-05-30T06:49:51.870Z,11.78
2023-05-30T06:52:23.941Z,11.78
2023-05-30T06:54:54.144Z,11.90
2023-05-30T06:57:24.294Z,11.93
2023-05-30T06:59:54.265Z,11.95
2023-05-30T07:02:26.915Z,11.99
2023-05-30T07:04:57.098Z,12.01
2023-05-30T07:07:27.131Z,12.08
2023-05-30T07:09:57.154Z,12.15
2023-05-30T07:12:28.003Z,12.09
2023-05-30T07:14:58.148Z,12.06
2023-05-30T07:17:31.126Z,12.06
2023-05-30T07:20:01.147Z,12.08
2023-05-30T07:22:31.127Z,12.19
2023-05-30T07:25:01.106Z,12.19
2023-05-30T07:27:31.141Z,12.21
2023-05-30T07:30:01.581Z,12.29
2023-05-30T07:32:34.326Z,12.29
2023-05-30T07:35:04.508Z,12.30
2023-05-30T07:37:34.418Z,12.29
2023-05-30T07:40:08.494Z,12.17
2023-05-30T07:42:54.026Z,12.26
2023-05-30T07:45:24.307Z,12.31
2023-05-30T07:48:04.141Z,12.21
2023-05-30T07:50:34.327Z,12.19
2023-05-30T07:53:04.410Z,12.25
2023-05-30T07:55:35.149Z,12.34
2023-05-30T07:58:05.119Z,12.38
2023-05-30T08:00:36.081Z,12.38
2023-05-30T08:03:09.119Z,12.39
2023-05-30T08:05:48.190Z,12.44
2023-05-30T08:08:18.369Z,12.48
2023-05-30T08:11:50.811Z,12.47
2023-05-30T08:20:14.136Z,12.64
2023-05-30T08:22:48.894Z,12.70
2023-05-30T08:25:34.291Z,12.74
2023-05-30T08:28:09.314Z,12.78
2023-05-30T08:34:30.442Z,12.88
2023-05-30T08:38:25.316Z,13.01
2023-05-30T08:41:53.571Z,13.05
2023-05-30T08:48:28.316Z,13.20
2023-05-30T08:51:09.357Z,13.21
2023-05-30T08:53:47.519Z,13.12
2023-05-30T08:56:46.746Z,13.14
2023-05-30T08:59:23.288Z,13.10
2023-05-30T09:01:55.407Z,13.05
2023-05-30T09:04:48.169Z,13.07
2023-05-30T09:07:20.869Z,12.98
2023-05-30T09:09:52.450Z,12.90
2023-05-30T09:12:33.864Z,13.06
2023-05-30T09:15:19.392Z,12.99
2023-05-30T09:18:09.163Z,13.11
2023-05-30T09:20:52.041Z,13.17
2023-05-30T09:23:57.148Z,13.21
2023-05-30T09:26:32.583Z,13.34
2023-05-30T09:29:23.708Z,13.24
2023-05-30T09:32:18.875Z,13.27
2023-05-30T09:35:25.293Z,13.43
2023-05-30T09:38:07.467Z,13.60
2023-05-30T09:43:41.028Z,13.81
2023-05-30T09:46:50.507Z,13.92
2023-05-30T09:53:30.272Z,14.17
2023-05-30T09:56:08.917Z,14.12
2023-05-30T09:58:55.254Z,14.03
2023-05-30T10:01:41.306Z,14.06
2023-05-30T10:04:19.581Z,14.13
2023-05-30T10:07:02.244Z,14.24
2023-05-30T10:10:35.734Z,14.33
2023-05-30T10:13:32.956Z,14.50
2023-05-30T10:16:05.060Z,14.70
2023-05-30T10:18:41.053Z,14.79
2023-05-30T10:21:12.611Z,14.81
2023-05-30T10:23:44.366Z,14.79
2023-05-30T10:26:16.531Z,14.77
2023-05-30T10:28:50.871Z,14.80
2023-05-30T10:31:26.946Z,14.70
2023-05-30T10:34:28.206Z,14.66
2023-05-30T10:37:13.056Z,14.68
2023-05-30T10:40:00.664Z,14.70
2023-05-30T10:42:51.876Z,14.72
2023-05-30T10:45:33.360Z,14.75
2023-05-30T10:48:17.624Z,14.72
2023-05-30T10:51:16.850Z,14.77
2023-05-30T10:54:12.392Z,14.60
2023-05-30T10:56:58.584Z,14.60
2023-05-30T11:05:53.295Z,14.87
2023-05-30T11:08:39.453Z,14.86
2023-05-30T11:11:27.208Z,15.00
2023-05-30T11:14:00.048Z,15.03
2023-05-30T11:16:33.296Z,15.12
2023-05-30T11:19:15.923Z,15.23
2023-05-30T11:22:01.910Z,15.18
2023-05-30T11:24:46.628Z,15.17
2023-05-30T11:27:29.991Z,15.26
2023-05-30T11:30:00.431Z,15.34
2023-05-30T11:32:31.034Z,15.35
2023-05-30T11:35:05.370Z,15.46
2023-05-30T11:37:39.727Z,15.52
2023-05-30T11:40:17.413Z,15.65
2023-05-30T11:43:23.417Z,15.73
2023-05-30T11:46:31.298Z,15.78
2023-05-30T11:49:12.714Z,15.73
2023-05-30T11:52:10.346Z,15.75
2023-05-30T11:55:03.485Z,15.61
2023-05-30T11:57:55.691Z,15.62
2023-05-30T12:00:34.228Z,15.61
2023-05-30T12:03:37.761Z,15.72
2023-05-30T12:06:17.678Z,15.90
2023-05-30T12:13:14.094Z,16.13
2023-05-30T12:16:26.168Z,16.19
2023-05-30T12:19:33.980Z,16.24
2023-05-30T12:22:51.135Z,16.25
2023-05-30T12:25:51.082Z,16.28
2023-05-30T12:28:42.442Z,16.18
2023-05-30T12:31:51.580Z,16.30
2023-05-30T12:34:33.731Z,16.29
2023-05-30T12:37:14.807Z,16.35
2023-05-30T12:40:19.386Z,16.36
2023-05-30T12:42:56.593Z,16.42
2023-05-30T12:45:26.799Z,16.43
2023-05-30T12:47:59.459Z,16.46
2023-05-30T12:50:29.524Z,16.44
2023-05-30T12:52:59.361Z,16.39
2023-05-30T12:55:29.206Z,16.38
2023-05-30T12:58:01.115Z,16.40
2023-05-30T13:00:31.427Z,16.45
2023-05-30T13:03:04.562Z,16.53
2023-05-30T13:05:34.706Z,16.61
2023-05-30T13:08:04.636Z,16.64
2023-05-30T13:10:34.892Z,16.70
2023-05-30T13:13:05.104Z,16.73
2023-05-30T13:15:35.023Z,16.75
2023-05-30T13:18:07.623Z,16.87
2023-05-30T13:20:37.655Z,16.94
2023-05-30T13:23:07.562Z,16.97
2023-05-30T13:25:37.336Z,17.00
2023-05-30T13:28:07.228Z,17.05
2023-05-30T13:30:37.066Z,17.08
2023-05-30T13:33:09.649Z,17.04
2023-05-30T13:35:39.512Z,16.89
2023-05-30T13:38:10.658Z,16.90
2023-05-30T13:40:40.608Z,16.97
2023-05-30T13:43:10.735Z,17.05
2023-05-30T13:45:40.614Z,17.15
2023-05-30T13:48:15.519Z,17.19
2023-05-30T13:50:46.738Z,17.23
2023-05-30T13:53:20.575Z,17.22
2023-05-30T13:55:54.754Z,17.25
2023-05-30T13:58:24.624Z,17.20
2023-05-30T14:00:54.696Z,17.23
2023-05-30T14:03:27.605Z,17.15
2023-05-30T14:05:57.565Z,17.18
2023-05-30T14:08:27.517Z,17.15
2023-05-30T14:10:58.016Z,17.03
2023-05-30T14:13:28.380Z,17.12
2023-05-30T14:15:58.381Z,17.01
2023-05-30T14:18:31.315Z,17.05
2023-05-30T14:21:01.400Z,17.06
2023-05-30T14:23:31.615Z,17.02
2023-05-30T14:26:01.546Z,17.00
2023-05-30T14:28:32.932Z,17.02
2023-05-30T14:31:03.518Z,17.03
2023-05-30T14:33:36.246Z,17.05
2023-05-30T14:36:06.346Z,17.10
2023-05-30T14:38:36.288Z,17.05
2023-05-30T14:41:06.433Z,17.09
2023-05-30T14:43:36.525Z,17.20
2023-05-30T14:46:07.026Z,17.22
2023-05-30T14:48:39.563Z,17.24
2023-05-30T14:51:09.572Z,17.35
2023-05-30T14:53:39.435Z,17.30
2023-05-30T14:56:09.237Z,17.23
2023-05-30T14:58:39.308Z,17.27
2023-05-30T15:01:30.828Z,17.32
2023-05-30T15:04:02.322Z,17.28
2023-05-30T15:06:32.223Z,17.17
2023-05-30T15:09:02.351Z,17.16
2023-05-30T15:11:33.168Z,17.26
2023-05-30T15:14:03.791Z,17.29
2023-05-30T15:16:34.127Z,17.32
2023-05-30T15:19:06.804Z,17.30
2023-05-30T15:21:36.831Z,17.35
2023-05-30T15:24:07.549Z,17.37
2023-05-30T15:26:37.669Z,17.35
2023-05-30T15:29:07.740Z,17.35
2023-05-30T15:31:37.848Z,17.23
2023-05-30T15:34:10.978Z,17.22
2023-05-30T15:36:40.988Z,17.14
2023-05-30T15:39:11.517Z,16.83
2023-05-30T15:41:41.187Z,16.88
2023-05-30T15:44:11.112Z,16.86
2023-05-30T15:46:41.234Z,16.81
2023-05-30T15:49:13.886Z,16.87
2023-05-30T15:51:43.794Z,16.85
2023-05-30T15:54:13.953Z,16.69
2023-05-30T15:56:43.877Z,16.71
2023-05-30T15:59:13.998Z,16.80
2023-05-30T16:01:45.124Z,16.79
2023-05-30T16:04:17.633Z,16.84
2023-05-30T16:06:47.936Z,16.82
2023-05-30T16:09:17.923Z,16.61
2023-05-30T16:11:47.775Z,16.48
2023-05-30T16:14:17.676Z,16.54
2023-05-30T16:16:47.701Z,16.59
2023-05-30T16:19:20.294Z,16.68
2023-05-30T16:21:50.324Z,16.74
2023-05-30T16:24:20.340Z,16.73
2023-05-30T16:26:50.621Z,16.68
2023-05-30T16:29:21.337Z,16.69
2023-05-30T16:31:51.356Z,16.65
2023-05-30T16:34:23.919Z,16.64
2023-05-30T16:36:53.879Z,16.58
2023-05-30T16:39:23.713Z,16.58
2023-05-30T16:41:53.963Z,16.58
2023-05-30T16:44:25.923Z,16.56
2023-05-30T16:46:55.939Z,16.48
2023-05-30T16:49:28.518Z,16.44
2023-05-30T16:51:58.784Z,16.45
2023-05-30T16:54:28.750Z,16.49
2023-05-30T16:56:58.650Z,16.46
2023-05-30T16:59:28.702Z,16.46
2023-05-30T17:01:59.597Z,16.33
2023-05-30T17:04:32.134Z,16.45
2023-05-30T17:07:01.908Z,16.36
2023-05-30T17:09:31.838Z,16.30
2023-05-30T17:12:03.182Z,16.36
2023-05-30T17:14:33.125Z,16.38
2023-05-30T17:17:03.014Z,16.31
2023-05-30T17:19:35.655Z,16.28
2023-05-30T17:22:06.077Z,16.21
2023-05-30T17:24:36.126Z,16.25
2023-05-30T17:27:06.723Z,16.25
2023-05-30T17:29:39.439Z,16.21
2023-05-30T17:32:10.834Z,16.15
2023-05-30T17:34:43.511Z,16.12
2023-05-30T17:37:13.571Z,16.12
2023-05-30T17:39:44.074Z,16.12
2023-05-30T17:42:14.069Z,16.16
2023-05-30T17:44:44.128Z,16.14
2023-05-30T17:47:14.046Z,16.11
2023-05-30T17:49:47.156Z,16.12
2023-05-30T17:52:17.133Z,16.10
2023-05-30T17:54:47.058Z,16.07
2023-05-30T17:57:16.884Z,16.07
2023-05-30T17:59:47.149Z,16.06
2023-05-30T18:02:17.060Z,16.02
2023-05-30T18:04:49.518Z,15.97
2023-05-30T18:07:19.354Z,16.02
2023-05-30T18:09:49.157Z,16.02
2023-05-30T18:12:19.072Z,15.97
2023-05-30T18:14:49.482Z,15.97
2023-05-30T18:17:19.453Z,15.95
2023-05-30T18:19:52.002Z,15.90
2023-05-30T18:22:22.036Z,15.90
2023-05-30T18:24:52.475Z,15.87
2023-05-30T18:27:22.476Z,15.91
2023-05-30T18:29:52.502Z,15.82
2023-05-30T18:32:22.727Z,15.74
2023-05-30T18:34:55.384Z,15.73
2023-05-30T18:37:25.188Z,15.72
2023-05-30T18:39:55.003Z,15.68
2023-05-30T18:42:25.054Z,15.63
2023-05-30T18:44:55.030Z,15.61
2023-05-30T18:47:25.082Z,15.59
2023-05-30T18:49:57.688Z,15.55
2023-05-30T18:52:27.535Z,15.50
2023-05-30T18:54:57.445Z,15.48
2023-05-30T18:57:27.378Z,15.45
2023-05-30T19:00:05.646Z,15.42
2023-05-30T19:05:34.193Z,15.39
2023-05-30T19:08:04.462Z,15.33
2023-05-30T19:10:37.669Z,15.31
2023-05-30T19:13:08.244Z,15.26
2023-05-30T19:15:38.426Z,15.20
2023-05-30T19:18:08.962Z,15.15
2023-05-30T19:20:41.840Z,15.14
2023-05-30T19:23:11.875Z,15.13
2023-05-30T19:25:42.119Z,15.07
2023-05-30T19:28:14.378Z,15.04
2023-05-30T19:30:44.758Z,14.98
2023-05-30T19:33:14.714Z,14.88
2023-05-30T19:35:47.572Z,14.85
2023-05-30T19:38:17.614Z,14.82
2023-05-30T19:40:47.625Z,14.78
2023-05-30T19:43:17.677Z,14.76
2023-05-30T19:45:47.657Z,14.75
2023-05-30T19:48:17.854Z,14.70
2023-05-30T19:50:50.402Z,14.61
2023-05-30T19:53:20.663Z,14.57
2023-05-30T19:55:50.580Z,14.46
2023-05-30T19:58:22.261Z,14.34
2023-05-30T20:00:53.010Z,14.30
2023-05-30T20:03:23.752Z,14.26
2023-05-30T20:05:56.401Z,14.21
2023-05-30T20:08:26.335Z,14.17
2023-05-30T20:10:56.706Z,14.12
2023-05-30T20:13:26.722Z,14.07
2023-05-30T20:15:56.824Z,14.04
2023-05-30T20:18:26.985Z,14.01
2023-05-30T20:20:59.675Z,14.01
2023-05-30T20:23:29.987Z,13.98
2023-05-30T20:25:59.938Z,13.90
2023-05-30T20:28:29.891Z,13.84
2023-05-30T20:31:00.378Z,13.81
2023-05-30T20:33:30.718Z,13.77
2023-05-30T20:36:03.301Z,13.72
2023-05-30T20:38:33.437Z,13.67
2023-05-30T20:41:03.567Z,13.62
2023-05-30T20:43:33.693Z,13.60
2023-05-30T20:46:03.739Z,13.55
2023-05-30T20:48:33.885Z,13.52
2023-05-30T20:51:07.020Z,13.47
2023-05-30T20:53:36.982Z,13.43
2023-05-30T20:56:07.586Z,13.40
2023-05-30T20:58:37.451Z,13.35
2023-05-30T21:01:08.033Z,13.30
2023-05-30T21:03:38.050Z,13.26
2023-05-30T21:06:11.198Z,13.26
2023-05-30T21:08:41.104Z,13.20
2023-05-30T21:11:11.032Z,13.15
2023-05-30T21:13:41.975Z,13.12
2023-05-30T21:16:12.815Z,13.08
2023-05-30T21:18:42.782Z,13.02
2023-05-30T21:21:15.258Z,12.96
2023-05-30T21:23:45.016Z,12.96
2023-05-30T21:26:15.034Z,12.95
2023-05-30T21:28:44.870Z,12.88
2023-05-30T21:31:14.747Z,12.84
2023-05-30T21:33:44.516Z,12.81
2023-05-30T21:36:17.081Z,12.74
2023-05-30T21:38:46.886Z,12.71
2023-05-30T21:41:16.768Z,12.67
2023-05-30T21:43:46.735Z,12.63
2023-05-30T21:46:16.794Z,12.59
2023-05-30T21:48:46.726Z,12.56
2023-05-30T21:51:19.435Z,12.57
2023-05-30T21:53:49.361Z,12.57
